createdAt,value
2022-11-11T00:02:02.319Z,100573.44
2022-11-11T00:04:36.152Z,100576.41
2022-11-11T00:07:11.718Z,100575.00
2022-11-11T00:09:45.252Z,100578.63
2022-11-11T00:12:19.221Z,100574.09
2022-11-11T00:14:52.745Z,100586.69
2022-11-11T00:17:43.575Z,100590.81
2022-11-11T00:20:35.140Z,100586.97
2022-11-11T00:23:39.477Z,100575.22
2022-11-11T00:26:38.445Z,100582.75
2022-11-11T00:29:09.141Z,100580.66
2022-11-11T00:31:56.165Z,100584.47
2022-11-11T00:34:29.812Z,100581.06
2022-11-11T00:37:03.031Z,100587.25
2022-11-11T00:39:38.321Z,100592.00
2022-11-11T00:42:11.966Z,100591.81
2022-11-11T00:44:45.706Z,100586.47
2022-11-11T00:47:36.431Z,100583.25
2022-11-11T00:50:32.511Z,100595.38
2022-11-11T00:53:09.730Z,100597.69
2022-11-11T00:55:45.303Z,100586.63
2022-11-11T00:58:18.970Z,100590.88
2022-11-11T01:00:54.255Z,100593.34
2022-11-11T01:03:29.474Z,100592.72
2022-11-11T01:06:03.800Z,100575.50
2022-11-11T01:08:37.398Z,100586.16
2022-11-11T01:11:17.489Z,100572.69
2022-11-11T01:13:52.270Z,100584.09
2022-11-11T01:16:27.986Z,100574.44
2022-11-11T01:19:01.693Z,100578.00
2022-11-11T01:21:34.548Z,100587.72
2022-11-11T01:24:07.854Z,100582.84
2022-11-11T01:26:42.648Z,100585.63
2022-11-11T01:29:16.408Z,100590.88
2022-11-11T01:31:50.371Z,100576.31
2022-11-11T01:34:24.291Z,100577.78
2022-11-11T01:36:57.888Z,100597.78
2022-11-11T01:39:31.778Z,100562.81
2022-11-11T01:42:07.157Z,100570.63
2022-11-11T01:44:47.212Z,100562.78
2022-11-11T01:47:22.001Z,100548.06
2022-11-11T01:49:59.847Z,100538.84
2022-11-11T01:52:38.698Z,100549.31
2022-11-11T01:55:18.549Z,100543.03
2022-11-11T01:57:58.167Z,100559.69
2022-11-11T02:00:32.388Z,100562.63
2022-11-11T02:03:10.177Z,100565.78
2022-11-11T02:05:43.973Z,100568.34
2022-11-11T02:08:34.103Z,100572.53
2022-11-11T02:11:12.709Z,100582.69
2022-11-11T02:14:05.707Z,100585.41
2022-11-11T02:16:39.420Z,100580.34
2022-11-11T02:19:13.719Z,100574.00
2022-11-11T02:21:59.799Z,100577.56
2022-11-11T02:24:35.528Z,100573.78
2022-11-11T02:27:13.616Z,100583.47
2022-11-11T02:29:52.025Z,100591.03
2022-11-11T02:32:25.648Z,100584.91
2022-11-11T02:34:59.410Z,100581.47
2022-11-11T02:37:32.555Z,100589.53
2022-11-11T02:40:10.651Z,100586.59
2022-11-11T02:42:47.470Z,100598.47
2022-11-11T02:45:21.294Z,100591.72
2022-11-11T02:47:55.023Z,100591.50
2022-11-11T02:50:28.797Z,100598.06
2022-11-11T02:53:02.550Z,100597.19
2022-11-11T02:55:37.840Z,100595.94
2022-11-11T02:58:12.008Z,100596.56
2022-11-11T03:00:46.040Z,100591.91
2022-11-11T03:03:19.882Z,100600.16
2022-11-11T03:05:53.677Z,100596.72
2022-11-11T03:08:27.317Z,100608.13
2022-11-11T03:11:02.730Z,100612.13
2022-11-11T03:13:35.687Z,100613.59
2022-11-11T03:16:30.015Z,100618.25
2022-11-11T03:19:02.544Z,100623.69
2022-11-11T03:24:50.204Z,100608.56
2022-11-11T03:27:25.414Z,100608.56
2022-11-11T03:29:58.212Z,100605.84
2022-11-11T03:32:31.919Z,100612.97
2022-11-11T03:35:05.871Z,100620.06
2022-11-11T03:37:56.497Z,100615.44
2022-11-11T03:40:30.104Z,100609.53
2022-11-11T03:43:05.842Z,100603.66
2022-11-11T03:45:39.434Z,100604.50
2022-11-11T03:48:13.342Z,100598.31
2022-11-11T03:50:48.798Z,100582.53
2022-11-11T03:53:23.952Z,100588.56
2022-11-11T03:55:57.909Z,100586.53
2022-11-11T03:58:33.154Z,100582.16
2022-11-11T04:01:27.031Z,100595.84
2022-11-11T04:04:17.708Z,100592.06
2022-11-11T04:07:22.913Z,100591.31
2022-11-11T04:10:13.732Z,100595.38
2022-11-11T04:13:04.529Z,100594.81
2022-11-11T04:15:56.717Z,100592.38
2022-11-11T04:18:47.579Z,100602.47
2022-11-11T04:21:43.681Z,100603.78
2022-11-11T04:24:35.994Z,100618.34
2022-11-11T04:27:12.412Z,100621.72
2022-11-11T04:29:47.216Z,100626.53
2022-11-11T04:32:40.156Z,100621.25
2022-11-11T04:35:15.225Z,100626.38
2022-11-11T04:37:50.964Z,100622.69
2022-11-11T04:40:41.738Z,100633.25
2022-11-11T04:43:15.499Z,100633.56
2022-11-11T04:45:47.979Z,100629.25
2022-11-11T04:48:23.385Z,100636.78
2022-11-11T04:50:57.023Z,100635.69
2022-11-11T04:53:30.911Z,100638.84
2022-11-11T04:56:21.573Z,100636.53
2022-11-11T04:59:16.048Z,100635.09
2022-11-11T05:02:18.406Z,100630.31
2022-11-11T05:04:53.590Z,100629.56
2022-11-11T05:07:44.177Z,100640.31
2022-11-11T05:10:18.240Z,100633.59
2022-11-11T05:12:51.867Z,100637.34
2022-11-11T05:15:42.308Z,100640.69
2022-11-11T05:18:33.746Z,100631.44
2022-11-11T05:21:22.901Z,100638.88
2022-11-11T05:24:13.916Z,100641.28
2022-11-11T05:26:46.911Z,100635.88
2022-11-11T05:29:19.804Z,100645.47
2022-11-11T05:31:53.444Z,100641.72
2022-11-11T05:34:27.006Z,100641.88
2022-11-11T05:37:02.246Z,100647.63
2022-11-11T05:39:35.870Z,100657.34
2022-11-11T05:42:09.960Z,100660.97
2022-11-11T05:44:43.652Z,100665.34
2022-11-11T05:47:17.413Z,100652.69
2022-11-11T05:49:52.206Z,100659.50
2022-11-11T05:52:27.114Z,100659.25
2022-11-11T05:55:00.645Z,100661.19
2022-11-11T05:57:34.323Z,100653.88
2022-11-11T06:00:09.108Z,100664.63
2022-11-11T06:02:41.995Z,100670.69
2022-11-11T06:05:14.858Z,100680.09
2022-11-11T06:07:55.009Z,100674.19
2022-11-11T06:10:34.140Z,100669.53
2022-11-11T06:13:10.536Z,100665.72
2022-11-11T06:15:44.224Z,100682.75
2022-11-11T06:18:18.263Z,100676.69
2022-11-11T06:20:55.367Z,100689.78
2022-11-11T06:23:31.552Z,100677.59
2022-11-11T06:26:14.931Z,100680.81
2022-11-11T06:28:50.554Z,100686.72
2022-11-11T06:31:26.465Z,100679.75
2022-11-11T06:34:00.319Z,100682.88
2022-11-11T06:36:33.836Z,100687.72
2022-11-11T06:39:09.155Z,100684.59
2022-11-11T06:41:42.695Z,100687.28
2022-11-11T06:44:16.402Z,100689.25
2022-11-11T06:46:49.927Z,100687.47
2022-11-11T06:49:23.777Z,100689.41
2022-11-11T06:51:56.675Z,100693.53
2022-11-11T06:54:31.696Z,100694.34
2022-11-11T06:57:08.569Z,100688.81
2022-11-11T06:59:42.661Z,100689.97
2022-11-11T07:02:16.692Z,100696.88
2022-11-11T07:04:50.530Z,100694.91
2022-11-11T07:07:24.277Z,100710.53
2022-11-11T07:09:59.639Z,100717.50
2022-11-11T07:12:33.182Z,100719.72
2022-11-11T07:15:07.495Z,100722.56
2022-11-11T07:17:40.700Z,100725.75
2022-11-11T07:20:14.450Z,100734.81
2022-11-11T07:22:48.011Z,100732.94
2022-11-11T07:25:23.243Z,100731.31
2022-11-11T07:27:59.311Z,100734.34
2022-11-11T07:30:33.308Z,100732.91
2022-11-11T07:33:07.514Z,100732.75
2022-11-11T07:35:41.216Z,100734.69
2022-11-11T07:38:14.785Z,100732.34
2022-11-11T07:40:49.999Z,100734.03
2022-11-11T07:43:25.291Z,100745.22
2022-11-11T07:46:00.882Z,100740.97
2022-11-11T07:48:34.537Z,100749.53
2022-11-11T07:51:08.649Z,100756.66
2022-11-11T07:53:42.472Z,100765.13
2022-11-11T07:56:16.692Z,100777.41
2022-11-11T07:58:50.326Z,100779.50
2022-11-11T08:01:23.707Z,100797.03
2022-11-11T08:03:56.605Z,100795.59
2022-11-11T08:06:30.309Z,100793.09
2022-11-11T08:09:03.994Z,100793.19
2022-11-11T08:11:56.384Z,100802.53
2022-11-11T08:14:30.121Z,100808.69
2022-11-11T08:17:03.807Z,100800.56
2022-11-11T08:19:37.434Z,100812.47
2022-11-11T08:22:11.165Z,100796.38
2022-11-11T08:25:02.800Z,100806.94
2022-11-11T08:27:39.646Z,100819.00
2022-11-11T08:30:13.653Z,100804.31
2022-11-11T08:33:00.506Z,100806.66
2022-11-11T08:35:40.922Z,100822.50
2022-11-11T08:38:15.202Z,100821.78
2022-11-11T08:40:48.920Z,100828.31
2022-11-11T08:43:24.630Z,100837.38
2022-11-11T08:45:58.449Z,100841.22
2022-11-11T08:48:32.744Z,100840.31
2022-11-11T08:51:06.448Z,100844.81
2022-11-11T08:53:40.126Z,100844.00
2022-11-11T08:56:13.131Z,100833.03
2022-11-11T08:58:48.543Z,100836.03
2022-11-11T09:01:21.544Z,100834.34
2022-11-11T09:03:54.983Z,100833.97
2022-11-11T09:06:29.664Z,100837.13
2022-11-11T09:09:03.849Z,100842.78
2022-11-11T09:11:37.601Z,100835.44
2022-11-11T09:14:12.722Z,100839.22
2022-11-11T09:16:46.480Z,100843.34
2022-11-11T09:19:20.185Z,100840.91
2022-11-11T09:21:54.231Z,100836.22
2022-11-11T09:24:27.967Z,100844.94
2022-11-11T09:27:00.849Z,100844.28
2022-11-11T09:29:36.086Z,100845.97
2022-11-11T09:32:09.646Z,100852.50
2022-11-11T09:34:43.651Z,100846.13
2022-11-11T09:37:16.517Z,100850.72
2022-11-11T09:39:50.176Z,100844.28
2022-11-11T09:42:35.861Z,100842.72
2022-11-11T09:45:21.586Z,100842.06
2022-11-11T09:48:07.643Z,100846.88
2022-11-11T09:50:54.710Z,100846.34
2022-11-11T09:53:34.602Z,100854.94
2022-11-11T09:56:29.716Z,100862.34
2022-11-11T09:59:09.837Z,100856.94
2022-11-11T10:01:50.637Z,100867.97
2022-11-11T10:04:33.212Z,100872.41
2022-11-11T10:07:15.354Z,100872.09
2022-11-11T10:09:55.811Z,100881.75
2022-11-11T10:12:43.155Z,100883.94
2022-11-11T10:15:17.656Z,100890.97
2022-11-11T10:18:06.718Z,100892.81
2022-11-11T10:20:43.661Z,100896.38
2022-11-11T10:23:19.554Z,100897.25
2022-11-11T10:25:56.026Z,100895.78
2022-11-11T10:28:34.778Z,100902.06
2022-11-11T10:31:16.395Z,100898.09
2022-11-11T10:33:55.691Z,100907.88
2022-11-11T10:36:36.886Z,100909.69
2022-11-11T10:39:14.671Z,100902.13
2022-11-11T10:41:49.986Z,100907.53
2022-11-11T10:44:26.665Z,100901.94
2022-11-11T10:47:07.781Z,100913.50
2022-11-11T10:49:48.973Z,100920.09
2022-11-11T10:52:26.801Z,100910.97
2022-11-11T10:55:06.375Z,100912.41
2022-11-11T10:57:45.652Z,100907.31
2022-11-11T11:00:19.752Z,100914.38
2022-11-11T11:03:01.334Z,100924.59
2022-11-11T11:05:44.800Z,100916.19
2022-11-11T11:09:04.246Z,100914.50
2022-11-11T11:11:43.527Z,100916.25
2022-11-11T11:14:22.385Z,100913.41
2022-11-11T11:17:00.638Z,100923.53
2022-11-11T11:19:33.468Z,100921.88
2022-11-11T11:22:06.328Z,100923.25
2022-11-11T11:24:43.874Z,100923.66
2022-11-11T11:27:27.929Z,100932.28
2022-11-11T11:30:16.785Z,100919.22
2022-11-11T11:32:59.949Z,100920.94
2022-11-11T11:35:36.454Z,100923.66
2022-11-11T11:38:11.735Z,100922.84
2022-11-11T11:40:56.362Z,100924.03
2022-11-11T11:43:36.007Z,100915.00
2022-11-11T11:46:20.582Z,100928.28
2022-11-11T11:49:08.092Z,100914.81
2022-11-11T11:51:49.086Z,100926.06
2022-11-11T11:54:49.154Z,100914.63
2022-11-11T11:57:37.522Z,100916.97
2022-11-11T12:00:19.377Z,100920.31
2022-11-11T12:03:22.664Z,100915.44
2022-11-11T12:06:05.092Z,100906.16
2022-11-11T12:08:53.706Z,100909.81
2022-11-11T12:11:37.560Z,100916.75
2022-11-11T12:14:39.840Z,100916.56
2022-11-11T12:17:28.189Z,100910.22
2022-11-11T12:20:12.509Z,100921.63
2022-11-11T12:23:05.041Z,100923.09
2022-11-11T12:25:54.376Z,100921.00
2022-11-11T12:28:42.521Z,100915.78
2022-11-11T12:31:28.909Z,100923.91
2022-11-11T12:34:13.671Z,100918.66
2022-11-11T12:37:00.816Z,100924.94
2022-11-11T12:39:54.038Z,100919.47
2022-11-11T12:42:40.950Z,100928.59
2022-11-11T12:45:20.179Z,100922.72
2022-11-11T12:48:05.074Z,100921.88
2022-11-11T12:50:46.558Z,100919.94
2022-11-11T12:53:31.155Z,100913.59
2022-11-11T12:56:14.392Z,100924.78
2022-11-11T12:58:53.237Z,100917.66
2022-11-11T13:01:40.323Z,100915.88
2022-11-11T13:04:34.793Z,100921.00
2022-11-11T13:07:50.604Z,100925.25
2022-11-11T13:10:32.432Z,100924.84
2022-11-11T13:13:24.488Z,100932.03
2022-11-11T13:16:00.410Z,100932.09
2022-11-11T13:18:44.067Z,100932.59
2022-11-11T13:21:24.465Z,100921.38
2022-11-11T13:23:58.356Z,100928.16
2022-11-11T13:26:38.550Z,100925.84
2022-11-11T13:29:51.747Z,100920.53
2022-11-11T13:32:32.245Z,100919.09
2022-11-11T13:35:17.348Z,100916.50
2022-11-11T13:37:52.140Z,100919.91
2022-11-11T13:40:35.576Z,100925.44
2022-11-11T13:43:19.024Z,100923.06
2022-11-11T13:45:55.196Z,100918.63
2022-11-11T13:48:30.892Z,100925.00
2022-11-11T13:51:26.093Z,100924.34
2022-11-11T13:54:03.665Z,100920.16
2022-11-11T13:56:43.517Z,100928.13
2022-11-11T13:59:24.861Z,100910.00
2022-11-11T14:02:33.352Z,100918.59
2022-11-11T14:05:26.367Z,100919.13
2022-11-11T14:08:00.164Z,100934.09
2022-11-11T14:11:00.401Z,100932.00
2022-11-11T14:13:41.446Z,100935.50
2022-11-11T14:16:53.214Z,100933.09
2022-11-11T14:19:32.794Z,100937.03
2022-11-11T14:22:33.747Z,100941.41
2022-11-11T14:25:22.185Z,100935.06
2022-11-11T14:27:56.668Z,100940.84
2022-11-11T14:30:39.331Z,100948.66
2022-11-11T14:33:24.675Z,100950.13
2022-11-11T14:36:03.411Z,100949.72
2022-11-11T14:38:49.945Z,100954.19
2022-11-11T14:41:53.098Z,100942.25
2022-11-11T14:44:44.804Z,100949.72
2022-11-11T14:47:26.289Z,100951.59
2022-11-11T14:50:00.412Z,100954.78
2022-11-11T14:52:39.442Z,100965.91
2022-11-11T14:55:19.996Z,100956.44
2022-11-11T14:57:59.743Z,100958.13
2022-11-11T15:00:45.014Z,100959.13
2022-11-11T15:03:28.360Z,100964.69
2022-11-11T15:06:06.362Z,100964.28
2022-11-11T15:08:51.869Z,100968.84
2022-11-11T15:11:33.065Z,100966.13
2022-11-11T15:14:31.773Z,100962.38
2022-11-11T15:17:20.980Z,100972.31
2022-11-11T15:20:12.113Z,100976.75
2022-11-11T15:22:56.863Z,100986.34
2022-11-11T15:25:46.232Z,100984.06
2022-11-11T15:28:40.191Z,100986.88
2022-11-11T15:31:24.146Z,100992.88
2022-11-11T15:34:11.915Z,100982.41
2022-11-11T15:37:05.350Z,100997.09
2022-11-11T15:39:42.707Z,100990.75
2022-11-11T15:42:27.977Z,100991.53
2022-11-11T15:45:05.144Z,100984.88
2022-11-11T15:47:39.284Z,100992.78
2022-11-11T15:50:34.500Z,100993.91
2022-11-11T15:53:13.565Z,100985.56
2022-11-11T15:55:54.444Z,100994.09
2022-11-11T15:58:29.335Z,100997.03
2022-11-11T16:01:06.958Z,100993.31
2022-11-11T16:03:43.418Z,100995.91
2022-11-11T16:06:18.606Z,100996.59
2022-11-11T16:08:56.435Z,101007.50
2022-11-11T16:11:29.805Z,101012.09
2022-11-11T16:14:08.430Z,101011.34
2022-11-11T16:16:43.196Z,101028.63
2022-11-11T16:19:28.664Z,101029.88
2022-11-11T16:22:11.773Z,101028.25
2022-11-11T16:24:46.658Z,101030.38
2022-11-11T16:27:23.627Z,101035.19
2022-11-11T16:29:57.478Z,101039.59
2022-11-11T16:32:36.088Z,101030.13
2022-11-11T16:35:26.440Z,101032.66
2022-11-11T16:38:03.022Z,101032.53
2022-11-11T16:40:42.808Z,101042.56
2022-11-11T16:43:25.209Z,101033.69
2022-11-11T16:46:04.291Z,101024.56
2022-11-11T16:48:50.377Z,101035.63
2022-11-11T16:51:39.765Z,101050.59
2022-11-11T16:54:18.337Z,101046.66
2022-11-11T16:56:55.530Z,101047.97
2022-11-11T16:59:40.680Z,101043.28
2022-11-11T17:02:18.367Z,101048.25
2022-11-11T17:04:54.015Z,101039.88
2022-11-11T17:07:32.635Z,101038.81
2022-11-11T17:10:17.685Z,101028.41
2022-11-11T17:12:52.260Z,101040.47
2022-11-11T17:15:25.838Z,101045.56
2022-11-11T17:17:59.491Z,101044.09
2022-11-11T17:20:33.046Z,101054.69
2022-11-11T17:23:07.248Z,101057.81
2022-11-11T17:25:41.576Z,101051.94
2022-11-11T17:28:21.532Z,101059.31
2022-11-11T17:30:55.135Z,101061.31
2022-11-11T17:33:29.065Z,101061.09
2022-11-11T17:36:02.944Z,101063.69
2022-11-11T17:38:38.100Z,101075.66
2022-11-11T17:41:16.819Z,101078.34
2022-11-11T17:43:49.749Z,101082.97
2022-11-11T17:46:23.354Z,101085.34
2022-11-11T17:48:57.992Z,101080.81
2022-11-11T17:51:31.645Z,101091.19
2022-11-11T17:54:09.515Z,101087.22
2022-11-11T17:56:45.442Z,101096.03
2022-11-11T17:59:19.336Z,101104.31
2022-11-11T18:01:52.240Z,101112.41
2022-11-11T18:04:25.157Z,101112.69
2022-11-11T18:06:58.951Z,101122.25
2022-11-11T18:09:32.810Z,101112.84
2022-11-11T18:12:08.783Z,101114.44
2022-11-11T18:14:42.419Z,101120.53
2022-11-11T18:17:16.242Z,101126.22
2022-11-11T18:19:49.989Z,101126.19
2022-11-11T18:22:23.263Z,101130.28
2022-11-11T18:24:57.281Z,101135.22
2022-11-11T18:27:31.585Z,101143.88
2022-11-11T18:30:05.491Z,101140.97
2022-11-11T18:32:39.133Z,101132.25
2022-11-11T18:35:12.100Z,101131.22
2022-11-11T18:37:46.696Z,101141.75
2022-11-11T18:40:19.999Z,101148.34
2022-11-11T18:42:55.189Z,101155.75
2022-11-11T18:45:29.905Z,101155.38
2022-11-11T18:48:03.537Z,101163.94
2022-11-11T18:50:37.210Z,101154.97
2022-11-11T18:53:10.945Z,101161.59
2022-11-11T18:55:44.575Z,101157.50
2022-11-11T18:58:18.804Z,101165.47
2022-11-11T19:00:52.008Z,101167.63
2022-11-11T19:03:25.868Z,101168.88
2022-11-11T19:06:03.066Z,101178.13
2022-11-11T19:08:37.330Z,101179.59
2022-11-11T19:11:12.070Z,101185.91
2022-11-11T19:13:46.839Z,101184.28
2022-11-11T19:16:23.487Z,101185.22
2022-11-11T19:18:57.625Z,101182.44
2022-11-11T19:21:33.025Z,101187.72
2022-11-11T19:24:09.211Z,101190.19
2022-11-11T19:26:44.057Z,101199.38
2022-11-11T19:29:19.369Z,101198.03
2022-11-11T19:31:53.080Z,101202.97
2022-11-11T19:34:26.701Z,101205.78
2022-11-11T19:36:59.691Z,101204.84
2022-11-11T19:39:33.399Z,101205.75
2022-11-11T19:42:07.219Z,101203.84
2022-11-11T19:44:42.261Z,101212.25
2022-11-11T19:47:16.662Z,101216.97
2022-11-11T19:49:50.223Z,101219.72
2022-11-11T19:52:23.255Z,101225.47
2022-11-11T19:54:57.172Z,101218.41
2022-11-11T19:57:31.091Z,101214.66
2022-11-11T20:00:08.780Z,101223.41
2022-11-11T20:02:42.523Z,101233.78
2022-11-11T20:05:15.338Z,101236.06
2022-11-11T20:07:48.157Z,101246.53
2022-11-11T20:10:21.006Z,101242.75
2022-11-11T20:12:54.200Z,101247.94
2022-11-11T20:15:28.648Z,101244.66
2022-11-11T20:18:02.741Z,101245.88
2022-11-11T20:20:35.620Z,101251.84
2022-11-11T20:23:08.484Z,101257.09
2022-11-11T20:25:41.300Z,101253.97
2022-11-11T20:28:14.937Z,101252.09
2022-11-11T20:30:50.760Z,101260.78
2022-11-11T20:33:23.816Z,101272.09
2022-11-11T20:35:56.887Z,101270.97
2022-11-11T20:38:30.995Z,101268.03
2022-11-11T20:41:05.844Z,101267.84
2022-11-11T20:43:39.803Z,101269.81
2022-11-11T20:46:16.637Z,101268.38
2022-11-11T20:48:52.643Z,101273.38
2022-11-11T20:51:27.661Z,101262.81
2022-11-11T20:54:01.917Z,101256.50
2022-11-11T20:56:35.483Z,101258.69
2022-11-11T20:59:09.473Z,101265.38
2022-11-11T21:01:44.630Z,101263.91
2022-11-11T21:04:18.551Z,101261.16
2022-11-11T21:06:52.179Z,101264.13
2022-11-11T21:09:25.887Z,101264.16
2022-11-11T21:11:59.788Z,101265.44
2022-11-11T21:14:33.465Z,101266.09
2022-11-11T21:17:08.483Z,101266.97
2022-11-11T21:19:42.133Z,101267.69
2022-11-11T21:22:15.740Z,101263.97
2022-11-11T21:24:49.453Z,101267.28
2022-11-11T21:27:22.305Z,101281.53
2022-11-11T21:29:56.136Z,101281.16
2022-11-11T21:32:30.347Z,101274.75
2022-11-11T21:35:03.179Z,101282.28
2022-11-11T21:37:36.781Z,101288.31
2022-11-11T21:40:10.841Z,101288.31
2022-11-11T21:42:43.636Z,101293.09
2022-11-11T21:45:17.490Z,101294.38
2022-11-11T21:47:52.590Z,101298.09
2022-11-11T21:50:26.224Z,101290.06
2022-11-11T21:52:59.847Z,101293.31
2022-11-11T21:55:32.776Z,101292.38
2022-11-11T21:58:05.567Z,101292.16
2022-11-11T22:00:38.440Z,101296.22
2022-11-11T22:03:13.540Z,101304.75
2022-11-11T22:05:47.272Z,101302.53
2022-11-11T22:08:20.542Z,101300.19
2022-11-11T22:10:55.378Z,101304.53
2022-11-11T22:13:28.597Z,101301.13
2022-11-11T22:16:04.345Z,101308.22
2022-11-11T22:18:43.386Z,101305.19
2022-11-11T22:21:21.227Z,101303.63
2022-11-11T22:23:56.738Z,101308.28
2022-11-11T22:26:33.701Z,101318.84
2022-11-11T22:29:09.879Z,101309.34
2022-11-11T22:31:44.900Z,101308.97
2022-11-11T22:34:20.031Z,101305.34
2022-11-11T22:36:53.833Z,101306.19
2022-11-11T22:39:27.404Z,101319.47
2022-11-11T22:42:01.109Z,101313.63
2022-11-11T22:44:34.695Z,101310.44
2022-11-11T22:47:08.365Z,101309.63
2022-11-11T22:49:42.533Z,101315.75
2022-11-11T22:52:16.394Z,101319.75
2022-11-11T22:54:49.966Z,101330.44
2022-11-11T22:57:26.413Z,101321.38
2022-11-11T22:59:59.980Z,101320.06
2022-11-11T23:02:33.806Z,101321.78
2022-11-11T23:05:09.450Z,101334.78
2022-11-11T23:07:43.009Z,101321.28
2022-11-11T23:10:18.349Z,101316.19
2022-11-11T23:12:54.631Z,101318.22
2022-11-11T23:15:31.225Z,101318.38
2022-11-11T23:18:04.955Z,101316.34
2022-11-11T23:20:39.117Z,101322.84
2022-11-11T23:23:11.982Z,101317.34
2022-11-11T23:25:45.554Z,101319.25
2022-11-11T23:28:18.521Z,101329.63
2022-11-11T23:30:52.441Z,101328.97
2022-11-11T23:33:25.461Z,101333.75
2022-11-11T23:36:02.419Z,101337.84
2022-11-11T23:38:36.349Z,101342.81
2022-11-11T23:41:10.066Z,101336.84
2022-11-11T23:43:43.440Z,101340.25
2022-11-11T23:46:17.166Z,101334.66
2022-11-11T23:48:51.957Z,101330.41
2022-11-11T23:51:27.183Z,101334.16
2022-11-11T23:54:01.030Z,101336.03
2022-11-11T23:56:35.201Z,101335.53
2022-11-11T23:59:09.029Z,101332.78
